createdAt,value
2023-02-03T00:00:15.212Z,0.60
2023-02-03T00:05:17.640Z,0.51
2023-02-03T00:10:21.731Z,0.35
2023-02-03T00:15:24.153Z,0.62
2023-02-03T00:20:26.930Z,0.52
2023-02-03T00:25:29.217Z,0.82
2023-02-03T00:30:32.154Z,0.60
2023-02-03T00:35:34.461Z,0.64
2023-02-03T00:40:36.605Z,0.85
2023-02-03T00:45:38.766Z,0.80
2023-02-03T00:50:41.235Z,0.70
2023-02-03T00:55:44.223Z,0.93
2023-02-03T01:00:46.384Z,1.11
2023-02-03T01:05:48.666Z,1.15
2023-02-03T01:10:51.058Z,1.30
2023-02-03T01:15:53.229Z,1.46
2023-02-03T01:20:55.584Z,1.60
2023-02-03T01:26:01.960Z,1.48
2023-02-03T01:31:13.346Z,1.56
2023-02-03T01:36:17.688Z,1.73
2023-02-03T01:41:25.326Z,1.81
2023-02-03T01:46:39.124Z,1.87
2023-02-03T01:51:44.684Z,1.90
2023-02-03T01:56:54.763Z,1.70
2023-02-03T02:01:58.097Z,1.68
2023-02-03T02:07:00.540Z,1.71
2023-02-03T02:12:02.810Z,1.82
2023-02-03T02:17:21.079Z,1.69
2023-02-03T02:22:31.640Z,1.84
2023-02-03T02:28:21.271Z,2.05
2023-02-03T02:33:57.392Z,1.79
2023-02-03T02:39:13.802Z,1.77
2023-02-03T02:44:37.566Z,2.04
2023-02-03T02:49:42.952Z,2.15
2023-02-03T02:54:51.902Z,1.91
2023-02-03T02:59:55.806Z,1.94
2023-02-03T03:05:00.180Z,1.98
2023-02-03T03:10:07.966Z,1.92
2023-02-03T03:15:23.075Z,1.92
2023-02-03T03:20:27.916Z,1.82
2023-02-03T03:25:39.778Z,2.07
2023-02-03T03:30:42.579Z,2.04
2023-02-03T03:36:24.728Z,1.95
2023-02-03T03:41:39.108Z,2.00
2023-02-03T03:46:50.807Z,1.96
2023-02-03T03:51:58.750Z,1.70
2023-02-03T03:57:24.244Z,2.16
2023-02-03T04:02:28.730Z,2.14
2023-02-03T04:07:43.602Z,1.74
2023-02-03T04:12:45.879Z,1.72
2023-02-03T04:17:50.905Z,1.62
2023-02-03T04:22:53.117Z,1.46
2023-02-03T04:27:55.678Z,1.71
2023-02-03T04:33:00.568Z,1.26
2023-02-03T04:38:03.356Z,1.74
2023-02-03T04:43:09.138Z,1.42
2023-02-03T04:48:11.439Z,1.63
2023-02-03T04:53:15.696Z,1.43
2023-02-03T04:58:21.384Z,1.55
2023-02-03T05:03:25.827Z,1.83
2023-02-03T05:08:28.659Z,1.67
2023-02-03T05:13:30.935Z,1.71
2023-02-03T05:18:33.052Z,1.86
2023-02-03T05:23:36.764Z,1.49
2023-02-03T05:28:39.282Z,1.39
2023-02-03T05:33:41.811Z,1.08
2023-02-03T05:38:44.261Z,1.26
2023-02-03T05:43:46.501Z,1.02
2023-02-03T05:48:48.820Z,1.28
2023-02-03T05:53:51.209Z,1.19
2023-02-03T05:58:53.987Z,1.35
2023-02-03T06:03:56.369Z,1.32
2023-02-03T06:08:58.637Z,1.37
2023-02-03T06:14:01.406Z,1.33
2023-02-03T06:19:03.662Z,1.42
2023-02-03T06:24:07.146Z,1.49
2023-02-03T06:29:09.669Z,1.72
2023-02-03T06:34:11.824Z,1.59
2023-02-03T06:39:14.081Z,1.64
2023-02-03T06:44:16.358Z,1.72
2023-02-03T06:49:19.115Z,1.61
2023-02-03T06:54:21.303Z,1.62
2023-02-03T06:59:23.564Z,1.59
2023-02-03T07:11:33.238Z,1.47
2023-02-03T07:16:37.868Z,1.52
2023-02-03T07:21:40.108Z,1.60
2023-02-03T07:26:42.474Z,1.36
2023-02-03T07:31:45.104Z,1.42
2023-02-03T07:36:47.339Z,1.85
2023-02-03T07:41:49.742Z,1.93
2023-02-03T07:46:52.127Z,1.90
2023-02-03T07:51:54.236Z,2.14
2023-02-03T07:56:56.450Z,2.15
2023-02-03T08:01:58.842Z,2.24
2023-02-03T08:07:01.156Z,2.43
2023-02-03T08:12:03.556Z,1.84
2023-02-03T08:17:05.765Z,2.04
2023-02-03T08:22:07.924Z,2.20
2023-02-03T08:27:09.995Z,2.52
2023-02-03T08:32:18.202Z,2.36
2023-02-03T08:37:24.672Z,2.64
2023-02-03T08:42:27.547Z,2.98
2023-02-03T08:47:29.665Z,2.63
2023-02-03T08:52:32.009Z,3.53
2023-02-03T08:57:36.132Z,4.38
2023-02-03T09:02:38.308Z,4.19
2023-02-03T09:07:40.378Z,4.46
2023-02-03T09:12:42.734Z,4.67
2023-02-03T09:17:45.186Z,3.78
2023-02-03T09:22:47.402Z,3.92
2023-02-03T09:27:49.878Z,3.82
2023-02-03T09:32:56.734Z,4.35
2023-02-03T09:38:01.033Z,4.54
2023-02-03T09:43:21.816Z,5.25
2023-02-03T09:48:30.986Z,4.84
2023-02-03T09:53:45.685Z,4.32
2023-02-03T09:58:48.104Z,4.89
2023-02-03T10:04:27.995Z,4.71
2023-02-03T10:09:54.745Z,4.98
2023-02-03T10:15:18.243Z,5.90
2023-02-03T10:20:36.027Z,6.55
2023-02-03T10:25:45.007Z,6.03
2023-02-03T10:30:57.223Z,6.48
2023-02-03T10:36:13.691Z,6.21
2023-02-03T10:41:18.253Z,5.66
2023-02-03T10:46:33.074Z,5.14
2023-02-03T10:51:40.759Z,5.01
2023-02-03T10:56:43.030Z,5.53
2023-02-03T11:01:49.500Z,5.20
2023-02-03T11:06:57.355Z,5.24
2023-02-03T11:12:08.362Z,5.05
2023-02-03T11:17:33.154Z,4.86
2023-02-03T11:22:40.646Z,4.73
2023-02-03T11:27:43.435Z,5.10
2023-02-03T11:32:48.121Z,5.57
2023-02-03T11:37:56.300Z,5.89
2023-02-03T11:42:58.474Z,5.40
2023-02-03T11:48:15.781Z,6.23
2023-02-03T11:53:27.666Z,6.10
2023-02-03T11:58:48.640Z,6.02
2023-02-03T12:04:12.845Z,5.80
2023-02-03T12:09:24.342Z,5.16
2023-02-03T12:14:36.777Z,5.10
2023-02-03T12:19:48.110Z,4.80
2023-02-03T12:25:14.382Z,4.69
2023-02-03T12:30:24.928Z,4.88
2023-02-03T12:35:48.267Z,4.78
2023-02-03T12:41:01.104Z,4.41
2023-02-03T12:46:18.638Z,4.49
2023-02-03T12:51:45.584Z,4.33
2023-02-03T12:56:51.835Z,4.82
2023-02-03T13:02:03.511Z,4.07
2023-02-03T13:07:15.501Z,4.43
2023-02-03T13:12:31.602Z,4.79
2023-02-03T13:17:52.599Z,5.03
2023-02-03T13:22:55.068Z,4.60
2023-02-03T13:28:15.423Z,4.59
2023-02-03T13:33:44.347Z,4.42
2023-02-03T13:39:34.688Z,3.78
2023-02-03T13:44:39.865Z,3.73
2023-02-03T13:49:46.641Z,4.23
2023-02-03T13:54:49.185Z,4.36
2023-02-03T13:59:51.563Z,4.54
2023-02-03T14:04:56.556Z,4.82
2023-02-03T14:10:24.360Z,4.59
2023-02-03T14:15:28.493Z,4.43
2023-02-03T14:20:49.398Z,4.07
2023-02-03T14:26:17.270Z,4.51
2023-02-03T14:31:25.462Z,4.03
2023-02-03T14:36:38.918Z,4.30
2023-02-03T14:42:02.429Z,4.14
2023-02-03T14:47:51.516Z,3.93
2023-02-03T14:53:22.731Z,3.87
2023-02-03T14:58:45.209Z,4.27
2023-02-03T15:04:13.045Z,4.22
2023-02-03T18:43:35.134Z,-1.73
2023-02-03T18:48:37.935Z,-1.46
2023-02-03T18:53:40.292Z,-1.33
2023-02-03T18:58:42.722Z,-1.29
2023-02-03T19:03:45.064Z,-1.16
2023-02-03T19:08:48.022Z,-1.17
2023-02-03T19:13:50.299Z,-1.06
2023-02-03T19:18:53.753Z,-1.11
2023-02-03T19:23:56.096Z,-1.02
2023-02-03T19:28:58.243Z,-1.21
2023-02-03T19:34:00.847Z,-1.32
2023-02-03T19:39:02.966Z,-1.24
2023-02-03T19:44:05.990Z,-1.25
2023-02-03T19:49:15.163Z,-0.97
2023-02-03T19:54:17.403Z,-1.35
2023-02-03T19:59:19.745Z,-1.44
2023-02-03T20:04:22.194Z,-1.23
2023-02-03T20:09:25.424Z,-1.28
2023-02-03T20:14:27.657Z,-1.31
2023-02-03T20:19:29.724Z,-1.03
2023-02-03T20:24:31.964Z,-0.72
2023-02-03T20:29:34.188Z,-0.93
2023-02-03T20:34:36.459Z,-0.73
2023-02-03T20:39:38.760Z,-0.87
2023-02-03T20:44:42.332Z,-0.94
2023-02-03T20:49:45.536Z,-0.56
2023-02-03T20:54:48.223Z,-0.65
2023-02-03T20:59:50.572Z,-0.63
2023-02-03T21:04:58.377Z,-0.57
2023-02-03T21:10:00.853Z,-0.51
2023-02-03T21:15:03.380Z,-0.33
2023-02-03T21:20:29.363Z,-0.23
2023-02-03T21:25:35.018Z,-0.05
2023-02-03T21:30:37.543Z,0.07
2023-02-03T21:35:39.901Z,0.17
2023-02-03T21:40:42.001Z,-0.11
2023-02-03T21:45:44.949Z,-0.22
2023-02-03T21:50:47.391Z,-0.29
2023-02-03T21:55:49.736Z,-0.27
2023-02-03T22:00:54.152Z,0.05
2023-02-03T22:06:19.211Z,0.33
2023-02-03T22:11:23.257Z,0.29
2023-02-03T22:16:25.988Z,0.36
2023-02-03T22:21:28.143Z,0.24
2023-02-03T22:26:30.565Z,0.22
2023-02-03T22:31:33.196Z,0.29
2023-02-03T22:36:35.443Z,0.22
2023-02-03T22:41:37.872Z,-0.11
2023-02-03T22:46:40.081Z,0.12
2023-02-03T22:51:42.607Z,0.02
2023-02-03T22:56:44.791Z,0.12
2023-02-03T23:01:47.062Z,0.12
2023-02-03T23:06:49.182Z,0.36
2023-02-03T23:11:51.250Z,0.19
2023-02-03T23:16:53.271Z,0.01
2023-02-03T23:21:55.660Z,0.06
2023-02-03T23:26:57.820Z,0.37
2023-02-03T23:31:59.993Z,0.43
2023-02-03T23:37:02.210Z,0.35
2023-02-03T23:42:04.887Z,0.54
2023-02-03T23:47:07.154Z,0.43
2023-02-03T23:52:09.366Z,0.24
2023-02-03T23:57:11.678Z,0.06
